sensor_id;sensor_type;location;lat;lon;timestamp;P1;durP1;ratioP1;P2;durP2;ratioP2
24335;SDS011;75016;52.400;16.880;2024-02-14T00:00:49;30.70;;;17.20;;
24335;SDS011;75016;52.400;16.880;2024-02-14T00:03:35;29.40;;;17.90;;
24335;SDS011;75016;52.400;16.880;2024-02-14T00:06:05;48.60;;;26.10;;
24335;SDS011;75016;52.400;16.880;2024-02-14T00:08:32;46.40;;;25.20;;
24335;SDS011;75016;52.400;16.880;2024-02-14T00:10:58;49.80;;;28.30;;
24335;SDS011;75016;52.400;16.880;2024-02-14T00:13:26;64.80;;;32.70;;
24335;SDS011;75016;52.400;16.880;2024-02-14T00:15:52;61.80;;;34.20;;
24335;SDS011;75016;52.400;16.880;2024-02-14T00:18:19;70.50;;;39.70;;
24335;SDS011;75016;52.400;16.880;2024-02-14T00:20:47;79.30;;;46.50;;
24335;SDS011;75016;52.400;16.880;2024-02-14T00:23:13;72.30;;;41.60;;
24335;SDS011;75016;52.400;16.880;2024-02-14T00:25:40;75.60;;;40.40;;
24335;SDS011;75016;52.400;16.880;2024-02-14T00:28:07;65.30;;;38.30;;
24335;SDS011;75016;52.400;16.880;2024-02-14T00:30:33;68.60;;;36.90;;
24335;SDS011;75016;52.400;16.880;2024-02-14T00:33:00;69.40;;;37.30;;
24335;SDS011;75016;52.400;16.880;2024-02-14T00:35:27;63.80;;;35.70;;
24335;SDS011;75016;52.400;16.880;2024-02-14T00:37:53;63.90;;;36.10;;
24335;SDS011;75016;52.400;16.880;2024-02-14T00:40:20;64.50;;;35.80;;
24335;SDS011;75016;52.400;16.880;2024-02-14T00:42:46;69.40;;;36.20;;
24335;SDS011;75016;52.400;16.880;2024-02-14T00:45:13;63.40;;;35.60;;
24335;SDS011;75016;52.400;16.880;2024-02-14T00:47:40;66.40;;;34.70;;
24335;SDS011;75016;52.400;16.880;2024-02-14T00:50:06;63.60;;;34.90;;
24335;SDS011;75016;52.400;16.880;2024-02-14T00:52:34;64.70;;;35.70;;
24335;SDS011;75016;52.400;16.880;2024-02-14T00:55:00;61.60;;;33.40;;
24335;SDS011;75016;52.400;16.880;2024-02-14T00:57:29;64.60;;;34.80;;
24335;SDS011;75016;52.400;16.880;2024-02-14T00:59:57;62.30;;;34.40;;
24335;SDS011;75016;52.400;16.880;2024-02-14T01:02:23;65.40;;;34.00;;
24335;SDS011;75016;52.400;16.880;2024-02-14T01:04:50;66.80;;;34.10;;
24335;SDS011;75016;52.400;16.880;2024-02-14T01:07:17;60.20;;;33.70;;
24335;SDS011;75016;52.400;16.880;2024-02-14T01:09:43;57.70;;;32.80;;
24335;SDS011;75016;52.400;16.880;2024-02-14T01:12:10;62.00;;;33.10;;
24335;SDS011;75016;52.400;16.880;2024-02-14T01:14:36;57.60;;;33.00;;
24335;SDS011;75016;52.400;16.880;2024-02-14T01:17:03;59.00;;;33.40;;
24335;SDS011;75016;52.400;16.880;2024-02-14T01:19:30;60.80;;;33.30;;
24335;SDS011;75016;52.400;16.880;2024-02-14T01:21:56;65.30;;;34.10;;
24335;SDS011;75016;52.400;16.880;2024-02-14T01:24:23;59.50;;;32.30;;
24335;SDS011;75016;52.400;16.880;2024-02-14T01:26:53;59.00;;;32.10;;
24335;SDS011;75016;52.400;16.880;2024-02-14T01:29:21;62.70;;;33.30;;
24335;SDS011;75016;52.400;16.880;2024-02-14T01:31:49;57.20;;;32.30;;
24335;SDS011;75016;52.400;16.880;2024-02-14T01:34:17;64.40;;;33.80;;
24335;SDS011;75016;52.400;16.880;2024-02-14T01:36:43;55.60;;;32.60;;
24335;SDS011;75016;52.400;16.880;2024-02-14T01:39:10;60.00;;;33.30;;
24335;SDS011;75016;52.400;16.880;2024-02-14T01:41:37;62.70;;;33.70;;
24335;SDS011;75016;52.400;16.880;2024-02-14T01:44:07;56.80;;;33.50;;
24335;SDS011;75016;52.400;16.880;2024-02-14T01:46:34;60.20;;;33.40;;
24335;SDS011;75016;52.400;16.880;2024-02-14T01:49:01;64.60;;;33.50;;
24335;SDS011;75016;52.400;16.880;2024-02-14T01:51:29;61.30;;;32.90;;
24335;SDS011;75016;52.400;16.880;2024-02-14T01:53:58;57.70;;;32.00;;
24335;SDS011;75016;52.400;16.880;2024-02-14T01:56:25;61.50;;;31.70;;
24335;SDS011;75016;52.400;16.880;2024-02-14T01:58:53;59.60;;;31.40;;
24335;SDS011;75016;52.400;16.880;2024-02-14T02:01:20;54.90;;;31.20;;
24335;SDS011;75016;52.400;16.880;2024-02-14T02:03:47;57.10;;;31.10;;
24335;SDS011;75016;52.400;16.880;2024-02-14T02:06:14;57.20;;;31.10;;
24335;SDS011;75016;52.400;16.880;2024-02-14T02:08:45;56.40;;;29.00;;
24335;SDS011;75016;52.400;16.880;2024-02-14T02:11:12;54.20;;;30.10;;
24335;SDS011;75016;52.400;16.880;2024-02-14T02:13:38;54.60;;;29.30;;
24335;SDS011;75016;52.400;16.880;2024-02-14T02:16:05;58.90;;;30.30;;
24335;SDS011;75016;52.400;16.880;2024-02-14T02:18:32;55.50;;;29.80;;
24335;SDS011;75016;52.400;16.880;2024-02-14T02:20:59;56.20;;;29.80;;
24335;SDS011;75016;52.400;16.880;2024-02-14T02:23:25;55.80;;;30.90;;
24335;SDS011;75016;52.400;16.880;2024-02-14T02:25:52;50.10;;;28.90;;
24335;SDS011;75016;52.400;16.880;2024-02-14T02:28:18;51.50;;;29.00;;
24335;SDS011;75016;52.400;16.880;2024-02-14T02:30:45;48.90;;;28.30;;
24335;SDS011;75016;52.400;16.880;2024-02-14T02:33:12;49.80;;;27.20;;
24335;SDS011;75016;52.400;16.880;2024-02-14T02:35:41;48.70;;;27.80;;
24335;SDS011;75016;52.400;16.880;2024-02-14T02:38:08;46.30;;;28.80;;
24335;SDS011;75016;52.400;16.880;2024-02-14T02:40:35;54.20;;;28.40;;
24335;SDS011;75016;52.400;16.880;2024-02-14T02:43:01;51.60;;;28.00;;
24335;SDS011;75016;52.400;16.880;2024-02-14T02:45:28;46.40;;;26.10;;
24335;SDS011;75016;52.400;16.880;2024-02-14T02:47:54;52.40;;;26.80;;
24335;SDS011;75016;52.400;16.880;2024-02-14T02:50:22;50.90;;;26.80;;
24335;SDS011;75016;52.400;16.880;2024-02-14T02:52:48;52.40;;;27.90;;
24335;SDS011;75016;52.400;16.880;2024-02-14T02:55:15;51.00;;;28.00;;
24335;SDS011;75016;52.400;16.880;2024-02-14T02:57:44;52.90;;;27.80;;
24335;SDS011;75016;52.400;16.880;2024-02-14T03:00:11;44.30;;;25.10;;
24335;SDS011;75016;52.400;16.880;2024-02-14T03:02:39;42.80;;;25.00;;
24335;SDS011;75016;52.400;16.880;2024-02-14T03:05:12;42.30;;;24.40;;
24335;SDS011;75016;52.400;16.880;2024-02-14T03:07:46;40.00;;;23.90;;
24335;SDS011;75016;52.400;16.880;2024-02-14T03:10:14;44.30;;;24.10;;
24335;SDS011;75016;52.400;16.880;2024-02-14T03:12:41;42.60;;;23.90;;
24335;SDS011;75016;52.400;16.880;2024-02-14T03:15:08;41.20;;;23.50;;
24335;SDS011;75016;52.400;16.880;2024-02-14T03:17:36;40.70;;;23.20;;
24335;SDS011;75016;52.400;16.880;2024-02-14T03:20:03;37.80;;;23.30;;
24335;SDS011;75016;52.400;16.880;2024-02-14T03:22:36;40.40;;;23.20;;
24335;SDS011;75016;52.400;16.880;2024-02-14T03:25:03;45.10;;;23.80;;
24335;SDS011;75016;52.400;16.880;2024-02-14T03:27:30;41.50;;;22.30;;
24335;SDS011;75016;52.400;16.880;2024-02-14T03:29:58;41.70;;;22.90;;
24335;SDS011;75016;52.400;16.880;2024-02-14T03:32:25;35.70;;;21.50;;
24335;SDS011;75016;52.400;16.880;2024-02-14T03:34:52;35.30;;;21.80;;
24335;SDS011;75016;52.400;16.880;2024-02-14T03:37:19;41.00;;;22.00;;
24335;SDS011;75016;52.400;16.880;2024-02-14T03:39:45;39.00;;;22.00;;
24335;SDS011;75016;52.400;16.880;2024-02-14T03:42:12;36.40;;;20.90;;
24335;SDS011;75016;52.400;16.880;2024-02-14T03:44:38;39.80;;;21.60;;
24335;SDS011;75016;52.400;16.880;2024-02-14T03:47:06;37.80;;;22.20;;
24335;SDS011;75016;52.400;16.880;2024-02-14T03:49:33;41.30;;;21.50;;
24335;SDS011;75016;52.400;16.880;2024-02-14T03:52:01;38.20;;;21.70;;
24335;SDS011;75016;52.400;16.880;2024-02-14T03:54:27;35.20;;;21.00;;
24335;SDS011;75016;52.400;16.880;2024-02-14T03:56:54;39.90;;;22.10;;
24335;SDS011;75016;52.400;16.880;2024-02-14T03:59:21;35.90;;;21.40;;
24335;SDS011;75016;52.400;16.880;2024-02-14T04:01:50;39.20;;;22.20;;
24335;SDS011;75016;52.400;16.880;2024-02-14T04:04:19;36.60;;;21.80;;
24335;SDS011;75016;52.400;16.880;2024-02-14T04:06:46;33.70;;;20.50;;
24335;SDS011;75016;52.400;16.880;2024-02-14T04:09:14;39.10;;;21.30;;
24335;SDS011;75016;52.400;16.880;2024-02-14T04:11:40;41.00;;;21.40;;
24335;SDS011;75016;52.400;16.880;2024-02-14T04:14:07;35.90;;;21.70;;
24335;SDS011;75016;52.400;16.880;2024-02-14T04:16:33;36.60;;;20.70;;
24335;SDS011;75016;52.400;16.880;2024-02-14T04:19:00;35.30;;;21.10;;
24335;SDS011;75016;52.400;16.880;2024-02-14T04:21:26;37.10;;;20.70;;
24335;SDS011;75016;52.400;16.880;2024-02-14T04:23:53;39.60;;;21.10;;
24335;SDS011;75016;52.400;16.880;2024-02-14T04:26:20;34.30;;;19.50;;
24335;SDS011;75016;52.400;16.880;2024-02-14T04:28:47;35.10;;;19.80;;
24335;SDS011;75016;52.400;16.880;2024-02-14T04:31:14;34.40;;;19.90;;
24335;SDS011;75016;52.400;16.880;2024-02-14T04:33:41;33.20;;;18.80;;
24335;SDS011;75016;52.400;16.880;2024-02-14T04:36:08;30.70;;;18.50;;
24335;SDS011;75016;52.400;16.880;2024-02-14T04:38:35;28.20;;;18.40;;
24335;SDS011;75016;52.400;16.880;2024-02-14T04:41:01;30.30;;;17.80;;
24335;SDS011;75016;52.400;16.880;2024-02-14T04:43:28;31.10;;;18.50;;
24335;SDS011;75016;52.400;16.880;2024-02-14T04:45:55;29.80;;;17.90;;
24335;SDS011;75016;52.400;16.880;2024-02-14T04:48:21;32.20;;;18.20;;
24335;SDS011;75016;52.400;16.880;2024-02-14T04:50:48;33.00;;;20.20;;
24335;SDS011;75016;52.400;16.880;2024-02-14T04:53:15;39.00;;;22.40;;
24335;SDS011;75016;52.400;16.880;2024-02-14T04:55:42;44.90;;;24.30;;
24335;SDS011;75016;52.400;16.880;2024-02-14T04:58:10;49.40;;;28.30;;
24335;SDS011;75016;52.400;16.880;2024-02-14T05:00:37;37.90;;;22.30;;
24335;SDS011;75016;52.400;16.880;2024-02-14T05:03:05;35.90;;;22.20;;
24335;SDS011;75016;52.400;16.880;2024-02-14T05:05:32;35.40;;;19.50;;
24335;SDS011;75016;52.400;16.880;2024-02-14T05:07:59;31.70;;;18.20;;
24335;SDS011;75016;52.400;16.880;2024-02-14T05:10:26;34.00;;;18.20;;
24335;SDS011;75016;52.400;16.880;2024-02-14T05:12:53;35.00;;;18.60;;
24335;SDS011;75016;52.400;16.880;2024-02-14T05:15:19;31.30;;;18.60;;
24335;SDS011;75016;52.400;16.880;2024-02-14T05:17:46;32.10;;;17.60;;
24335;SDS011;75016;52.400;16.880;2024-02-14T05:20:13;32.00;;;18.30;;
24335;SDS011;75016;52.400;16.880;2024-02-14T05:22:39;31.60;;;18.50;;
24335;SDS011;75016;52.400;16.880;2024-02-14T05:25:06;32.50;;;19.40;;
24335;SDS011;75016;52.400;16.880;2024-02-14T05:27:35;35.10;;;18.70;;
24335;SDS011;75016;52.400;16.880;2024-02-14T05:30:03;36.40;;;19.40;;
24335;SDS011;75016;52.400;16.880;2024-02-14T05:32:35;32.80;;;18.40;;
24335;SDS011;75016;52.400;16.880;2024-02-14T05:35:02;35.80;;;20.50;;
24335;SDS011;75016;52.400;16.880;2024-02-14T05:39:58;33.80;;;20.30;;
24335;SDS011;75016;52.400;16.880;2024-02-14T05:42:25;40.50;;;21.30;;
24335;SDS011;75016;52.400;16.880;2024-02-14T05:44:51;34.20;;;21.30;;
24335;SDS011;75016;52.400;16.880;2024-02-14T05:47:18;35.10;;;21.10;;
24335;SDS011;75016;52.400;16.880;2024-02-14T05:49:45;35.10;;;20.30;;
24335;SDS011;75016;52.400;16.880;2024-02-14T05:52:12;35.60;;;20.30;;
24335;SDS011;75016;52.400;16.880;2024-02-14T05:54:38;33.80;;;20.20;;
24335;SDS011;75016;52.400;16.880;2024-02-14T05:57:05;34.80;;;20.50;;
24335;SDS011;75016;52.400;16.880;2024-02-14T05:59:31;36.00;;;20.00;;
24335;SDS011;75016;52.400;16.880;2024-02-14T06:01:58;34.30;;;19.20;;
24335;SDS011;75016;52.400;16.880;2024-02-14T06:04:25;36.40;;;19.60;;
24335;SDS011;75016;52.400;16.880;2024-02-14T06:06:52;35.60;;;19.70;;
24335;SDS011;75016;52.400;16.880;2024-02-14T06:09:18;38.50;;;20.20;;
24335;SDS011;75016;52.400;16.880;2024-02-14T06:11:45;37.20;;;19.60;;
24335;SDS011;75016;52.400;16.880;2024-02-14T06:14:11;36.20;;;19.90;;
24335;SDS011;75016;52.400;16.880;2024-02-14T06:16:39;34.50;;;19.60;;
24335;SDS011;75016;52.400;16.880;2024-02-14T06:19:05;37.20;;;19.70;;
24335;SDS011;75016;52.400;16.880;2024-02-14T06:21:32;36.50;;;19.30;;
24335;SDS011;75016;52.400;16.880;2024-02-14T06:24:00;32.90;;;18.70;;
24335;SDS011;75016;52.400;16.880;2024-02-14T06:26:27;34.30;;;19.50;;
24335;SDS011;75016;52.400;16.880;2024-02-14T06:28:54;31.50;;;19.00;;
24335;SDS011;75016;52.400;16.880;2024-02-14T06:31:21;32.60;;;18.70;;
24335;SDS011;75016;52.400;16.880;2024-02-14T06:33:49;31.90;;;17.70;;
24335;SDS011;75016;52.400;16.880;2024-02-14T06:36:15;29.20;;;17.30;;
24335;SDS011;75016;52.400;16.880;2024-02-14T06:38:42;30.10;;;17.90;;
24335;SDS011;75016;52.400;16.880;2024-02-14T06:41:09;32.40;;;18.50;;
24335;SDS011;75016;52.400;16.880;2024-02-14T06:43:36;31.90;;;17.60;;
24335;SDS011;75016;52.400;16.880;2024-02-14T06:46:05;31.90;;;18.30;;
24335;SDS011;75016;52.400;16.880;2024-02-14T06:48:32;30.70;;;17.30;;
24335;SDS011;75016;52.400;16.880;2024-02-14T06:50:59;29.40;;;18.00;;
24335;SDS011;75016;52.400;16.880;2024-02-14T06:53:26;30.50;;;17.60;;
24335;SDS011;75016;52.400;16.880;2024-02-14T06:55:52;29.20;;;17.50;;
24335;SDS011;75016;52.400;16.880;2024-02-14T06:58:19;31.10;;;18.00;;
24335;SDS011;75016;52.400;16.880;2024-02-14T07:00:45;29.30;;;17.90;;
24335;SDS011;75016;52.400;16.880;2024-02-14T07:03:12;30.20;;;17.90;;
24335;SDS011;75016;52.400;16.880;2024-02-14T07:05:38;30.20;;;16.90;;
24335;SDS011;75016;52.400;16.880;2024-02-14T07:08:06;26.90;;;17.40;;
24335;SDS011;75016;52.400;16.880;2024-02-14T07:10:32;29.50;;;17.70;;
24335;SDS011;75016;52.400;16.880;2024-02-14T07:12:59;31.60;;;18.10;;
24335;SDS011;75016;52.400;16.880;2024-02-14T07:15:26;30.00;;;18.40;;
24335;SDS011;75016;52.400;16.880;2024-02-14T07:17:55;29.10;;;17.50;;
24335;SDS011;75016;52.400;16.880;2024-02-14T07:20:21;27.60;;;18.50;;
24335;SDS011;75016;52.400;16.880;2024-02-14T07:22:48;29.60;;;17.70;;
24335;SDS011;75016;52.400;16.880;2024-02-14T07:25:19;27.30;;;17.30;;
24335;SDS011;75016;52.400;16.880;2024-02-14T07:27:46;25.90;;;17.40;;
24335;SDS011;75016;52.400;16.880;2024-02-14T07:30:15;27.00;;;17.90;;
24335;SDS011;75016;52.400;16.880;2024-02-14T07:32:43;29.90;;;18.80;;
24335;SDS011;75016;52.400;16.880;2024-02-14T07:35:10;30.90;;;17.10;;
24335;SDS011;75016;52.400;16.880;2024-02-14T07:37:39;26.60;;;17.20;;
24335;SDS011;75016;52.400;16.880;2024-02-14T07:40:06;27.40;;;17.60;;
24335;SDS011;75016;52.400;16.880;2024-02-14T07:42:33;29.50;;;17.80;;
24335;SDS011;75016;52.400;16.880;2024-02-14T07:44:59;29.40;;;17.70;;
24335;SDS011;75016;52.400;16.880;2024-02-14T07:47:26;28.50;;;17.20;;
24335;SDS011;75016;52.400;16.880;2024-02-14T07:49:53;28.30;;;17.10;;
24335;SDS011;75016;52.400;16.880;2024-02-14T07:52:19;31.80;;;17.50;;
24335;SDS011;75016;52.400;16.880;2024-02-14T07:54:46;27.00;;;16.90;;
24335;SDS011;75016;52.400;16.880;2024-02-14T07:57:12;27.00;;;16.90;;
24335;SDS011;75016;52.400;16.880;2024-02-14T07:59:39;29.30;;;17.60;;
24335;SDS011;75016;52.400;16.880;2024-02-14T08:02:05;26.90;;;16.70;;
24335;SDS011;75016;52.400;16.880;2024-02-14T08:04:32;31.10;;;18.20;;
24335;SDS011;75016;52.400;16.880;2024-02-14T08:06:58;31.20;;;19.40;;
24335;SDS011;75016;52.400;16.880;2024-02-14T08:09:25;32.80;;;19.90;;
24335;SDS011;75016;52.400;16.880;2024-02-14T08:11:51;34.20;;;22.00;;
24335;SDS011;75016;52.400;16.880;2024-02-14T08:14:19;38.40;;;22.10;;
24335;SDS011;75016;52.400;16.880;2024-02-14T08:16:46;31.40;;;20.20;;
24335;SDS011;75016;52.400;16.880;2024-02-14T08:19:12;36.90;;;19.70;;
24335;SDS011;75016;52.400;16.880;2024-02-14T08:21:39;26.30;;;17.40;;
24335;SDS011;75016;52.400;16.880;2024-02-14T08:24:05;27.80;;;17.10;;
24335;SDS011;75016;52.400;16.880;2024-02-14T08:26:32;33.40;;;17.80;;
24335;SDS011;75016;52.400;16.880;2024-02-14T08:28:59;28.40;;;17.50;;
24335;SDS011;75016;52.400;16.880;2024-02-14T08:31:26;30.00;;;17.40;;
24335;SDS011;75016;52.400;16.880;2024-02-14T08:33:53;28.50;;;17.40;;
24335;SDS011;75016;52.400;16.880;2024-02-14T08:36:20;33.90;;;18.20;;
24335;SDS011;75016;52.400;16.880;2024-02-14T08:38:47;29.70;;;19.00;;
24335;SDS011;75016;52.400;16.880;2024-02-14T08:41:13;32.10;;;18.40;;
24335;SDS011;75016;52.400;16.880;2024-02-14T08:43:44;31.00;;;18.50;;
24335;SDS011;75016;52.400;16.880;2024-02-14T08:46:11;31.00;;;18.60;;
24335;SDS011;75016;52.400;16.880;2024-02-14T08:48:38;30.70;;;18.30;;
24335;SDS011;75016;52.400;16.880;2024-02-14T08:51:12;33.60;;;18.30;;
24335;SDS011;75016;52.400;16.880;2024-02-14T08:53:40;31.10;;;18.90;;
24335;SDS011;75016;52.400;16.880;2024-02-14T08:56:08;38.20;;;20.20;;
24335;SDS011;75016;52.400;16.880;2024-02-14T08:58:35;41.70;;;22.60;;
24335;SDS011;75016;52.400;16.880;2024-02-14T09:01:02;44.20;;;22.90;;
24335;SDS011;75016;52.400;16.880;2024-02-14T09:03:28;41.60;;;25.30;;
24335;SDS011;75016;52.400;16.880;2024-02-14T09:05:57;36.90;;;20.90;;
24335;SDS011;75016;52.400;16.880;2024-02-14T09:08:24;30.50;;;17.80;;
24335;SDS011;75016;52.400;16.880;2024-02-14T09:10:51;30.50;;;18.40;;
24335;SDS011;75016;52.400;16.880;2024-02-14T09:13:17;30.40;;;18.10;;
24335;SDS011;75016;52.400;16.880;2024-02-14T09:15:44;36.80;;;20.60;;
24335;SDS011;75016;52.400;16.880;2024-02-14T09:18:11;40.20;;;22.10;;
24335;SDS011;75016;52.400;16.880;2024-02-14T09:20:37;31.90;;;18.50;;
24335;SDS011;75016;52.400;16.880;2024-02-14T09:23:04;32.20;;;18.50;;
24335;SDS011;75016;52.400;16.880;2024-02-14T09:25:30;28.70;;;17.60;;
24335;SDS011;75016;52.400;16.880;2024-02-14T09:27:57;28.70;;;16.50;;
24335;SDS011;75016;52.400;16.880;2024-02-14T09:30:24;28.40;;;16.20;;
24335;SDS011;75016;52.400;16.880;2024-02-14T09:32:50;28.70;;;15.50;;
24335;SDS011;75016;52.400;16.880;2024-02-14T09:35:17;24.00;;;14.50;;
24335;SDS011;75016;52.400;16.880;2024-02-14T09:37:43;29.60;;;15.00;;
24335;SDS011;75016;52.400;16.880;2024-02-14T09:40:10;26.50;;;16.20;;
24335;SDS011;75016;52.400;16.880;2024-02-14T09:42:44;27.40;;;15.30;;
24335;SDS011;75016;52.400;16.880;2024-02-14T09:45:15;26.20;;;14.90;;
24335;SDS011;75016;52.400;16.880;2024-02-14T09:47:41;24.90;;;15.00;;
24335;SDS011;75016;52.400;16.880;2024-02-14T09:50:08;26.30;;;14.50;;
24335;SDS011;75016;52.400;16.880;2024-02-14T09:52:36;25.50;;;15.00;;
24335;SDS011;75016;52.400;16.880;2024-02-14T09:55:05;22.60;;;13.90;;
24335;SDS011;75016;52.400;16.880;2024-02-14T09:57:33;23.30;;;14.40;;
24335;SDS011;75016;52.400;16.880;2024-02-14T10:00:01;24.30;;;14.60;;
24335;SDS011;75016;52.400;16.880;2024-02-14T10:02:31;22.90;;;14.80;;
24335;SDS011;75016;52.400;16.880;2024-02-14T10:04:57;25.80;;;14.60;;
24335;SDS011;75016;52.400;16.880;2024-02-14T10:07:24;21.40;;;14.00;;
24335;SDS011;75016;52.400;16.880;2024-02-14T10:09:52;20.40;;;13.50;;
24335;SDS011;75016;52.400;16.880;2024-02-14T10:12:20;20.80;;;13.30;;
24335;SDS011;75016;52.400;16.880;2024-02-14T10:14:46;24.80;;;13.90;;
24335;SDS011;75016;52.400;16.880;2024-02-14T10:17:19;24.40;;;13.60;;
24335;SDS011;75016;52.400;16.880;2024-02-14T10:19:57;20.30;;;13.00;;
24335;SDS011;75016;52.400;16.880;2024-02-14T10:22:35;23.40;;;14.00;;
24335;SDS011;75016;52.400;16.880;2024-02-14T10:25:05;24.40;;;13.70;;
24335;SDS011;75016;52.400;16.880;2024-02-14T10:27:38;22.40;;;13.50;;
24335;SDS011;75016;52.400;16.880;2024-02-14T10:30:06;20.90;;;12.80;;
24335;SDS011;75016;52.400;16.880;2024-02-14T10:32:37;26.00;;;13.50;;
24335;SDS011;75016;52.400;16.880;2024-02-14T10:35:04;23.60;;;13.10;;
24335;SDS011;75016;52.400;16.880;2024-02-14T10:37:35;22.20;;;13.60;;
24335;SDS011;75016;52.400;16.880;2024-02-14T10:40:02;21.00;;;13.40;;
24335;SDS011;75016;52.400;16.880;2024-02-14T10:42:32;20.70;;;13.60;;
24335;SDS011;75016;52.400;16.880;2024-02-14T10:44:59;28.00;;;14.00;;
24335;SDS011;75016;52.400;16.880;2024-02-14T10:47:30;21.80;;;13.50;;
24335;SDS011;75016;52.400;16.880;2024-02-14T10:50:03;25.70;;;14.30;;
24335;SDS011;75016;52.400;16.880;2024-02-14T10:52:35;19.80;;;14.00;;
24335;SDS011;75016;52.400;16.880;2024-02-14T10:55:06;21.20;;;13.90;;
24335;SDS011;75016;52.400;16.880;2024-02-14T10:57:33;22.70;;;13.60;;
24335;SDS011;75016;52.400;16.880;2024-02-14T11:00:01;21.10;;;13.40;;
24335;SDS011;75016;52.400;16.880;2024-02-14T11:02:31;21.50;;;13.50;;
24335;SDS011;75016;52.400;16.880;2024-02-14T11:04:58;21.60;;;13.80;;
24335;SDS011;75016;52.400;16.880;2024-02-14T11:07:29;21.20;;;13.00;;
24335;SDS011;75016;52.400;16.880;2024-02-14T11:12:34;23.80;;;11.80;;
24335;SDS011;75016;52.400;16.880;2024-02-14T11:18:04;19.00;;;10.70;;
24335;SDS011;75016;52.400;16.880;2024-02-14T11:20:36;15.10;;;10.50;;
24335;SDS011;75016;52.400;16.880;2024-02-14T11:23:04;20.40;;;9.90;;
24335;SDS011;75016;52.400;16.880;2024-02-14T11:25:38;14.50;;;9.70;;
24335;SDS011;75016;52.400;16.880;2024-02-14T11:28:14;15.80;;;10.10;;
24335;SDS011;75016;52.400;16.880;2024-02-14T11:30:47;16.50;;;10.00;;
24335;SDS011;75016;52.400;16.880;2024-02-14T11:33:18;18.60;;;9.90;;
24335;SDS011;75016;52.400;16.880;2024-02-14T11:35:50;16.10;;;10.20;;
24335;SDS011;75016;52.400;16.880;2024-02-14T11:38:22;15.10;;;9.90;;
24335;SDS011;75016;52.400;16.880;2024-02-14T11:40:55;15.30;;;8.90;;
24335;SDS011;75016;52.400;16.880;2024-02-14T11:43:25;16.20;;;8.70;;
24335;SDS011;75016;52.400;16.880;2024-02-14T11:45:53;14.30;;;8.40;;
24335;SDS011;75016;52.400;16.880;2024-02-14T11:48:20;14.00;;;8.20;;
24335;SDS011;75016;52.400;16.880;2024-02-14T11:50:47;14.20;;;8.20;;
24335;SDS011;75016;52.400;16.880;2024-02-14T11:53:14;15.00;;;8.30;;
24335;SDS011;75016;52.400;16.880;2024-02-14T11:55:47;13.10;;;8.60;;
24335;SDS011;75016;52.400;16.880;2024-02-14T11:58:16;17.10;;;9.10;;
24335;SDS011;75016;52.400;16.880;2024-02-14T12:00:43;13.90;;;8.60;;
24335;SDS011;75016;52.400;16.880;2024-02-14T12:03:18;13.60;;;8.50;;
24335;SDS011;75016;52.400;16.880;2024-02-14T12:05:47;14.10;;;8.90;;
24335;SDS011;75016;52.400;16.880;2024-02-14T12:08:19;14.30;;;8.60;;
24335;SDS011;75016;52.400;16.880;2024-02-14T12:10:46;13.70;;;8.90;;
24335;SDS011;75016;52.400;16.880;2024-02-14T12:13:16;13.30;;;9.00;;
24335;SDS011;75016;52.400;16.880;2024-02-14T12:15:44;16.90;;;9.90;;
24335;SDS011;75016;52.400;16.880;2024-02-14T12:18:13;17.00;;;10.20;;
24335;SDS011;75016;52.400;16.880;2024-02-14T12:20:40;13.30;;;9.40;;
24335;SDS011;75016;52.400;16.880;2024-02-14T12:23:13;14.80;;;9.30;;
24335;SDS011;75016;52.400;16.880;2024-02-14T12:25:41;14.20;;;9.20;;
24335;SDS011;75016;52.400;16.880;2024-02-14T12:28:08;14.90;;;9.60;;
24335;SDS011;75016;52.400;16.880;2024-02-14T12:30:44;14.90;;;8.60;;
24335;SDS011;75016;52.400;16.880;2024-02-14T12:33:18;16.30;;;9.70;;
24335;SDS011;75016;52.400;16.880;2024-02-14T12:35:45;16.00;;;9.30;;
24335;SDS011;75016;52.400;16.880;2024-02-14T12:38:13;15.50;;;9.80;;
24335;SDS011;75016;52.400;16.880;2024-02-14T12:40:41;15.60;;;10.30;;
24335;SDS011;75016;52.400;16.880;2024-02-14T12:43:08;15.70;;;10.50;;
24335;SDS011;75016;52.400;16.880;2024-02-14T12:45:36;18.30;;;10.60;;
24335;SDS011;75016;52.400;16.880;2024-02-14T12:48:04;16.10;;;10.20;;
24335;SDS011;75016;52.400;16.880;2024-02-14T12:50:31;15.60;;;10.30;;
24335;SDS011;75016;52.400;16.880;2024-02-14T12:52:58;15.10;;;10.70;;
24335;SDS011;75016;52.400;16.880;2024-02-14T12:55:25;17.60;;;10.50;;
24335;SDS011;75016;52.400;16.880;2024-02-14T12:57:55;15.40;;;10.20;;
24335;SDS011;75016;52.400;16.880;2024-02-14T13:00:23;19.20;;;11.40;;
24335;SDS011;75016;52.400;16.880;2024-02-14T13:02:50;16.60;;;10.30;;
24335;SDS011;75016;52.400;16.880;2024-02-14T13:05:17;16.80;;;10.90;;
24335;SDS011;75016;52.400;16.880;2024-02-14T13:07:43;18.10;;;10.80;;
24335;SDS011;75016;52.400;16.880;2024-02-14T13:10:10;20.20;;;11.80;;
24335;SDS011;75016;52.400;16.880;2024-02-14T13:12:37;16.30;;;11.10;;
24335;SDS011;75016;52.400;16.880;2024-02-14T13:15:05;18.20;;;10.60;;
24335;SDS011;75016;52.400;16.880;2024-02-14T13:17:32;16.10;;;11.60;;
24335;SDS011;75016;52.400;16.880;2024-02-14T13:19:59;18.50;;;11.10;;
24335;SDS011;75016;52.400;16.880;2024-02-14T13:22:26;18.60;;;11.20;;
24335;SDS011;75016;52.400;16.880;2024-02-14T13:24:53;19.80;;;12.70;;
24335;SDS011;75016;52.400;16.880;2024-02-14T13:27:20;20.70;;;12.60;;
24335;SDS011;75016;52.400;16.880;2024-02-14T13:29:47;22.60;;;12.60;;
24335;SDS011;75016;52.400;16.880;2024-02-14T13:32:14;15.20;;;10.70;;
24335;SDS011;75016;52.400;16.880;2024-02-14T13:34:40;20.80;;;12.00;;
24335;SDS011;75016;52.400;16.880;2024-02-14T13:37:07;16.90;;;11.40;;
24335;SDS011;75016;52.400;16.880;2024-02-14T13:39:35;20.90;;;11.60;;
24335;SDS011;75016;52.400;16.880;2024-02-14T13:42:02;18.60;;;10.50;;
24335;SDS011;75016;52.400;16.880;2024-02-14T13:44:29;15.20;;;10.70;;
24335;SDS011;75016;52.400;16.880;2024-02-14T13:46:56;17.30;;;11.00;;
24335;SDS011;75016;52.400;16.880;2024-02-14T13:49:22;19.50;;;11.20;;
24335;SDS011;75016;52.400;16.880;2024-02-14T13:51:49;20.20;;;11.80;;
24335;SDS011;75016;52.400;16.880;2024-02-14T13:54:18;16.50;;;11.10;;
24335;SDS011;75016;52.400;16.880;2024-02-14T13:56:45;17.80;;;11.60;;
24335;SDS011;75016;52.400;16.880;2024-02-14T13:59:12;18.70;;;12.20;;
24335;SDS011;75016;52.400;16.880;2024-02-14T14:01:38;17.60;;;11.50;;
24335;SDS011;75016;52.400;16.880;2024-02-14T14:04:05;19.30;;;12.40;;
24335;SDS011;75016;52.400;16.880;2024-02-14T14:06:32;17.90;;;12.00;;
24335;SDS011;75016;52.400;16.880;2024-02-14T14:09:00;18.10;;;12.50;;
24335;SDS011;75016;52.400;16.880;2024-02-14T14:11:29;21.30;;;12.90;;
24335;SDS011;75016;52.400;16.880;2024-02-14T14:13:55;20.70;;;12.60;;
24335;SDS011;75016;52.400;16.880;2024-02-14T14:16:22;20.20;;;12.60;;
24335;SDS011;75016;52.400;16.880;2024-02-14T14:18:49;20.40;;;12.60;;
24335;SDS011;75016;52.400;16.880;2024-02-14T14:21:16;22.70;;;13.90;;